sensor_id;sensor_type;location;lat;lon;timestamp;pressure;altitude;pressure_sealevel;temperature;humidity
70434;BME280;57876;47.792;12.960;2024-03-25T00:02:22;95979.63;;;18.43;43.55
70434;BME280;57876;47.792;12.960;2024-03-25T00:04:46;95989.00;;;18.42;43.39
70434;BME280;57876;47.792;12.960;2024-03-25T00:07:10;95999.97;;;18.42;43.61
70434;BME280;57876;47.792;12.960;2024-03-25T00:09:35;95998.38;;;18.41;43.72
70434;BME280;57876;47.792;12.960;2024-03-25T00:11:59;96003.88;;;18.41;43.81
70434;BME280;57876;47.792;12.960;2024-03-25T00:14:23;95991.31;;;18.40;43.48
70434;BME280;57876;47.792;12.960;2024-03-25T00:16:49;95999.53;;;18.40;43.50
70434;BME280;57876;47.792;12.960;2024-03-25T00:19:14;95997.16;;;18.38;43.71
70434;BME280;57876;47.792;12.960;2024-03-25T00:21:38;95998.28;;;18.37;43.65
70434;BME280;57876;47.792;12.960;2024-03-25T00:24:03;95993.63;;;18.38;43.69
70434;BME280;57876;47.792;12.960;2024-03-25T00:26:27;95994.75;;;18.37;43.77
70434;BME280;57876;47.792;12.960;2024-03-25T00:28:52;95990.44;;;18.36;43.93
70434;BME280;57876;47.792;12.960;2024-03-25T00:31:16;95994.31;;;18.35;43.63
70434;BME280;57876;47.792;12.960;2024-03-25T00:33:40;95992.75;;;18.34;43.62
70434;BME280;57876;47.792;12.960;2024-03-25T00:36:05;95990.00;;;18.34;43.62
70434;BME280;57876;47.792;12.960;2024-03-25T00:38:29;96003.69;;;18.34;43.26
70434;BME280;57876;47.792;12.960;2024-03-25T00:40:54;95991.16;;;18.33;43.67
70434;BME280;57876;47.792;12.960;2024-03-25T00:43:18;95985.69;;;18.33;43.67
70434;BME280;57876;47.792;12.960;2024-03-25T00:45:43;95995.47;;;18.34;43.66
70434;BME280;57876;47.792;12.960;2024-03-25T00:48:08;95994.69;;;18.33;43.61
70434;BME280;57876;47.792;12.960;2024-03-25T00:50:33;95990.44;;;18.36;43.41
70434;BME280;57876;47.792;12.960;2024-03-25T00:52:57;95988.03;;;18.34;43.69
70434;BME280;57876;47.792;12.960;2024-03-25T00:55:21;95985.75;;;18.36;43.91
70434;BME280;57876;47.792;12.960;2024-03-25T00:57:46;95996.72;;;18.36;43.40
70434;BME280;57876;47.792;12.960;2024-03-25T01:00:11;95992.81;;;18.37;43.59
70434;BME280;57876;47.792;12.960;2024-03-25T01:02:35;95979.13;;;18.37;43.72
70434;BME280;57876;47.792;12.960;2024-03-25T01:04:59;95990.88;;;18.38;43.74
70434;BME280;57876;47.792;12.960;2024-03-25T01:07:24;95993.63;;;18.38;43.80
70434;BME280;57876;47.792;12.960;2024-03-25T01:09:48;95999.09;;;18.38;43.76
70434;BME280;57876;47.792;12.960;2024-03-25T01:12:13;95992.81;;;18.37;43.61
70434;BME280;57876;47.792;12.960;2024-03-25T01:14:37;95987.72;;;18.36;43.56
70434;BME280;57876;47.792;12.960;2024-03-25T01:17:01;95993.19;;;18.36;43.53
70434;BME280;57876;47.792;12.960;2024-03-25T01:19:26;95985.31;;;18.34;43.49
70434;BME280;57876;47.792;12.960;2024-03-25T01:21:50;95988.41;;;18.33;43.71
70434;BME280;57876;47.792;12.960;2024-03-25T01:24:14;96000.50;;;18.32;43.65
70434;BME280;57876;47.792;12.960;2024-03-25T01:26:39;96008.72;;;18.32;43.81
70434;BME280;57876;47.792;12.960;2024-03-25T01:29:03;96015.78;;;18.33;43.59
70434;BME280;57876;47.792;12.960;2024-03-25T01:31:28;96002.44;;;18.31;43.69
70434;BME280;57876;47.792;12.960;2024-03-25T01:33:52;95998.13;;;18.30;43.74
70434;BME280;57876;47.792;12.960;2024-03-25T01:36:16;95995.75;;;18.29;43.74
70434;BME280;57876;47.792;12.960;2024-03-25T01:38:42;95993.00;;;18.29;43.49
70434;BME280;57876;47.792;12.960;2024-03-25T01:41:10;95989.47;;;18.28;43.57
70434;BME280;57876;47.792;12.960;2024-03-25T01:43:35;95990.97;;;18.25;43.55
70434;BME280;57876;47.792;12.960;2024-03-25T01:46:00;95992.56;;;18.26;43.52
70434;BME280;57876;47.792;12.960;2024-03-25T01:48:24;95990.97;;;18.25;43.56
70434;BME280;57876;47.792;12.960;2024-03-25T01:50:48;96000.34;;;18.24;43.64
70434;BME280;57876;47.792;12.960;2024-03-25T01:53:14;96001.13;;;18.25;43.47
70434;BME280;57876;47.792;12.960;2024-03-25T01:55:38;96007.31;;;18.22;43.71
70434;BME280;57876;47.792;12.960;2024-03-25T01:58:04;95993.25;;;18.23;43.62
70434;BME280;57876;47.792;12.960;2024-03-25T02:00:29;96001.13;;;18.25;43.68
70434;BME280;57876;47.792;12.960;2024-03-25T02:02:54;95988.59;;;18.24;43.79
70434;BME280;57876;47.792;12.960;2024-03-25T02:05:19;96001.13;;;18.25;43.74
70434;BME280;57876;47.792;12.960;2024-03-25T02:07:44;95996.44;;;18.25;44.09
70434;BME280;57876;47.792;12.960;2024-03-25T02:10:09;96002.38;;;18.27;43.51
70434;BME280;57876;47.792;12.960;2024-03-25T02:12:34;95992.56;;;18.26;43.40
70434;BME280;57876;47.792;12.960;2024-03-25T02:14:59;96001.66;;;18.31;43.65
70434;BME280;57876;47.792;12.960;2024-03-25T02:17:23;95993.78;;;18.29;43.67
70434;BME280;57876;47.792;12.960;2024-03-25T02:19:48;95993.44;;;18.31;43.60
70434;BME280;57876;47.792;12.960;2024-03-25T02:22:13;95986.38;;;18.30;43.52
70434;BME280;57876;47.792;12.960;2024-03-25T02:24:38;95986.81;;;18.32;43.67
70434;BME280;57876;47.792;12.960;2024-03-25T02:27:03;95987.97;;;18.31;43.56
70434;BME280;57876;47.792;12.960;2024-03-25T02:29:37;95973.50;;;18.30;43.64
70434;BME280;57876;47.792;12.960;2024-03-25T02:32:01;95971.19;;;18.32;43.52
70434;BME280;57876;47.792;12.960;2024-03-25T02:34:26;95971.88;;;18.29;43.54
70434;BME280;57876;47.792;12.960;2024-03-25T02:36:51;95973.84;;;18.29;43.49
70434;BME280;57876;47.792;12.960;2024-03-25T02:39:17;95982.84;;;18.29;43.55
70434;BME280;57876;47.792;12.960;2024-03-25T02:41:41;95979.31;;;18.29;43.56
70434;BME280;57876;47.792;12.960;2024-03-25T02:44:06;95979.31;;;18.29;43.43
70434;BME280;57876;47.792;12.960;2024-03-25T02:46:30;95976.13;;;18.26;43.55
70434;BME280;57876;47.792;12.960;2024-03-25T02:48:54;95981.59;;;18.26;43.65
70434;BME280;57876;47.792;12.960;2024-03-25T02:51:19;95981.59;;;18.26;43.71
70434;BME280;57876;47.792;12.960;2024-03-25T02:53:43;95982.41;;;18.27;43.84
70434;BME280;57876;47.792;12.960;2024-03-25T02:56:08;95974.56;;;18.25;43.92
70434;BME280;57876;47.792;12.960;2024-03-25T02:58:32;95985.50;;;18.25;43.48
70434;BME280;57876;47.792;12.960;2024-03-25T03:00:57;95982.31;;;18.23;43.78
70434;BME280;57876;47.792;12.960;2024-03-25T03:03:21;95979.13;;;18.21;43.61
70434;BME280;57876;47.792;12.960;2024-03-25T03:05:45;95979.94;;;18.22;43.66
70434;BME280;57876;47.792;12.960;2024-03-25T03:08:10;95982.69;;;18.22;43.56
70434;BME280;57876;47.792;12.960;2024-03-25T03:10:34;95976.41;;;18.21;43.96
70434;BME280;57876;47.792;12.960;2024-03-25T03:12:58;95975.28;;;18.22;43.75
70434;BME280;57876;47.792;12.960;2024-03-25T03:15:23;95982.69;;;18.22;43.49
70434;BME280;57876;47.792;12.960;2024-03-25T03:17:47;95986.56;;;18.21;43.78
70434;BME280;57876;47.792;12.960;2024-03-25T03:20:12;95984.25;;;18.23;43.60
70434;BME280;57876;47.792;12.960;2024-03-25T03:22:37;95982.31;;;18.23;43.83
70434;BME280;57876;47.792;12.960;2024-03-25T03:25:01;95978.44;;;18.24;43.68
70434;BME280;57876;47.792;12.960;2024-03-25T03:27:26;95977.28;;;18.25;43.52
70434;BME280;57876;47.792;12.960;2024-03-25T03:29:50;95980.81;;;18.26;43.60
70434;BME280;57876;47.792;12.960;2024-03-25T03:32:15;95976.56;;;18.29;43.56
70434;BME280;57876;47.792;12.960;2024-03-25T03:34:39;95977.28;;;18.25;43.65
70434;BME280;57876;47.792;12.960;2024-03-25T03:37:04;95986.75;;;18.28;43.76
70434;BME280;57876;47.792;12.960;2024-03-25T03:39:28;95978.53;;;18.28;43.47
70434;BME280;57876;47.792;12.960;2024-03-25T03:41:52;95978.53;;;18.28;43.57
70434;BME280;57876;47.792;12.960;2024-03-25T03:44:17;95985.94;;;18.27;43.80
70434;BME280;57876;47.792;12.960;2024-03-25T03:46:41;95978.06;;;18.26;43.72
70434;BME280;57876;47.792;12.960;2024-03-25T03:49:06;95985.94;;;18.27;43.73
70434;BME280;57876;47.792;12.960;2024-03-25T03:51:30;95981.59;;;18.26;43.56
70434;BME280;57876;47.792;12.960;2024-03-25T03:53:55;95974.09;;;18.23;43.66
70434;BME280;57876;47.792;12.960;2024-03-25T03:56:20;95983.94;;;18.24;43.57
70434;BME280;57876;47.792;12.960;2024-03-25T03:58:44;95983.94;;;18.24;43.67
70434;BME280;57876;47.792;12.960;2024-03-25T04:01:18;95986.66;;;18.24;43.56
70434;BME280;57876;47.792;12.960;2024-03-25T04:03:43;95986.66;;;18.24;43.71
70434;BME280;57876;47.792;12.960;2024-03-25T04:06:11;95986.22;;;18.22;43.67
70434;BME280;57876;47.792;12.960;2024-03-25T04:08:36;95992.13;;;18.24;43.73
70434;BME280;57876;47.792;12.960;2024-03-25T04:11:02;95990.53;;;18.23;43.51
70434;BME280;57876;47.792;12.960;2024-03-25T04:13:26;95986.22;;;18.22;43.61
70434;BME280;57876;47.792;12.960;2024-03-25T04:15:50;95985.84;;;18.24;43.58
70434;BME280;57876;47.792;12.960;2024-03-25T04:18:15;95989.41;;;18.24;43.52
70434;BME280;57876;47.792;12.960;2024-03-25T04:20:40;95993.72;;;18.25;43.22
70434;BME280;57876;47.792;12.960;2024-03-25T04:23:05;95994.16;;;18.27;43.70
70434;BME280;57876;47.792;12.960;2024-03-25T04:25:31;96006.69;;;18.29;43.63
70434;BME280;57876;47.792;12.960;2024-03-25T04:27:55;96006.69;;;18.29;43.39
70434;BME280;57876;47.792;12.960;2024-03-25T04:30:20;96008.72;;;18.32;43.73
70434;BME280;57876;47.792;12.960;2024-03-25T04:32:44;96007.47;;;18.29;43.53
70434;BME280;57876;47.792;12.960;2024-03-25T04:35:09;96011.44;;;18.32;43.67
70434;BME280;57876;47.792;12.960;2024-03-25T04:37:34;96015.78;;;18.33;43.56
70434;BME280;57876;47.792;12.960;2024-03-25T04:39:59;96014.19;;;18.32;43.69
70434;BME280;57876;47.792;12.960;2024-03-25T04:42:23;96008.72;;;18.32;43.62
70434;BME280;57876;47.792;12.960;2024-03-25T04:44:48;96021.28;;;18.33;43.60
70434;BME280;57876;47.792;12.960;2024-03-25T04:47:12;96011.91;;;18.34;43.58
70434;BME280;57876;47.792;12.960;2024-03-25T04:49:38;96018.94;;;18.35;43.60
70434;BME280;57876;47.792;12.960;2024-03-25T04:52:03;96023.28;;;18.36;43.35
70434;BME280;57876;47.792;12.960;2024-03-25T04:54:28;96028.06;;;18.39;43.65
70434;BME280;57876;47.792;12.960;2024-03-25T04:56:52;96023.81;;;18.41;43.58
70434;BME280;57876;47.792;12.960;2024-03-25T04:59:17;96025.06;;;18.44;43.61
70434;BME280;57876;47.792;12.960;2024-03-25T05:01:41;96029.38;;;18.45;43.59
70434;BME280;57876;47.792;12.960;2024-03-25T05:04:05;96033.72;;;18.46;43.52
70434;BME280;57876;47.792;12.960;2024-03-25T05:06:33;96034.13;;;18.48;43.57
70434;BME280;57876;47.792;12.960;2024-03-25T05:08:57;96036.09;;;18.47;43.38
70434;BME280;57876;47.792;12.960;2024-03-25T05:11:22;96039.28;;;18.49;43.51
70434;BME280;57876;47.792;12.960;2024-03-25T05:13:46;96041.28;;;18.53;43.40
70434;BME280;57876;47.792;12.960;2024-03-25T05:16:12;96044.03;;;18.53;43.73
70434;BME280;57876;47.792;12.960;2024-03-25T05:18:36;96043.69;;;18.54;43.61
70434;BME280;57876;47.792;12.960;2024-03-25T05:21:00;96050.41;;;18.57;43.55
70434;BME280;57876;47.792;12.960;2024-03-25T05:23:25;96047.28;;;18.58;43.43
70434;BME280;57876;47.792;12.960;2024-03-25T05:25:49;96055.50;;;18.58;43.51
70434;BME280;57876;47.792;12.960;2024-03-25T05:28:14;96058.25;;;18.58;43.61
70434;BME280;57876;47.792;12.960;2024-03-25T05:30:38;96057.91;;;18.60;43.52
70434;BME280;57876;47.792;12.960;2024-03-25T05:33:02;96055.97;;;18.60;43.52
70434;BME280;57876;47.792;12.960;2024-03-25T05:35:27;96059.03;;;18.59;43.61
70434;BME280;57876;47.792;12.960;2024-03-25T05:37:52;96051.28;;;18.61;43.47
70434;BME280;57876;47.792;12.960;2024-03-25T05:40:16;96063.84;;;18.62;43.51
70434;BME280;57876;47.792;12.960;2024-03-25T05:42:44;96053.66;;;18.62;43.42
70434;BME280;57876;47.792;12.960;2024-03-25T05:45:08;96062.31;;;18.64;43.46
70434;BME280;57876;47.792;12.960;2024-03-25T05:47:33;96048.63;;;18.64;43.48
70434;BME280;57876;47.792;12.960;2024-03-25T05:49:58;96053.75;;;18.66;43.48
70434;BME280;57876;47.792;12.960;2024-03-25T05:52:22;96051.44;;;18.68;43.47
70434;BME280;57876;47.792;12.960;2024-03-25T05:54:46;96050.66;;;18.67;43.42
70434;BME280;57876;47.792;12.960;2024-03-25T05:57:11;96053.81;;;18.69;43.33
70434;BME280;57876;47.792;12.960;2024-03-25T05:59:35;96053.47;;;18.71;43.29
70434;BME280;57876;47.792;12.960;2024-03-25T06:01:59;96056.22;;;18.71;43.37
70434;BME280;57876;47.792;12.960;2024-03-25T06:04:24;96053.47;;;18.71;43.48
70434;BME280;57876;47.792;12.960;2024-03-25T06:06:48;96062.47;;;18.71;43.35
70434;BME280;57876;47.792;12.960;2024-03-25T06:09:12;96054.63;;;18.70;43.56
70434;BME280;57876;47.792;12.960;2024-03-25T06:11:37;96055.41;;;18.70;43.46
70434;BME280;57876;47.792;12.960;2024-03-25T06:14:01;96060.44;;;18.68;43.41
70434;BME280;57876;47.792;12.960;2024-03-25T06:16:26;96059.66;;;18.68;43.23
70434;BME280;57876;47.792;12.960;2024-03-25T06:18:51;96062.75;;;18.66;43.61
70434;BME280;57876;47.792;12.960;2024-03-25T06:21:15;96061.16;;;18.65;43.52
70434;BME280;57876;47.792;12.960;2024-03-25T06:23:40;96057.63;;;18.65;43.49
70434;BME280;57876;47.792;12.960;2024-03-25T06:26:04;96065.06;;;18.64;43.39
70434;BME280;57876;47.792;12.960;2024-03-25T06:28:30;96073.28;;;18.64;43.64
70434;BME280;57876;47.792;12.960;2024-03-25T06:30:54;96070.09;;;18.62;43.51
70434;BME280;57876;47.792;12.960;2024-03-25T06:33:37;96069.66;;;18.60;43.74
70434;BME280;57876;47.792;12.960;2024-03-25T06:36:21;96081.41;;;18.61;43.67
70434;BME280;57876;47.792;12.960;2024-03-25T06:38:45;96077.41;;;18.58;43.55
70434;BME280;57876;47.792;12.960;2024-03-25T06:41:10;96073.09;;;18.57;43.54
70434;BME280;57876;47.792;12.960;2024-03-25T06:43:35;96074.22;;;18.56;43.61
70434;BME280;57876;47.792;12.960;2024-03-25T06:46:00;96075.47;;;18.59;43.45
70434;BME280;57876;47.792;12.960;2024-03-25T06:48:24;96077.41;;;18.58;43.75
70434;BME280;57876;47.792;12.960;2024-03-25T06:51:01;96076.28;;;18.59;43.46
70434;BME280;57876;47.792;12.960;2024-03-25T06:53:27;96079.03;;;18.59;43.57
70434;BME280;57876;47.792;12.960;2024-03-25T06:56:00;96077.88;;;18.60;43.55
70434;BME280;57876;47.792;12.960;2024-03-25T06:58:28;96083.00;;;18.62;43.63
70434;BME280;57876;47.792;12.960;2024-03-25T07:00:53;96081.06;;;18.62;43.62
70434;BME280;57876;47.792;12.960;2024-03-25T07:03:19;96077.53;;;18.62;43.06
70434;BME280;57876;47.792;12.960;2024-03-25T07:05:47;96081.13;;;18.66;43.62
70434;BME280;57876;47.792;12.960;2024-03-25T07:08:12;96083.88;;;18.66;43.37
70434;BME280;57876;47.792;12.960;2024-03-25T07:10:37;96083.53;;;18.67;43.51
70434;BME280;57876;47.792;12.960;2024-03-25T07:13:02;96089.00;;;18.67;43.42
70434;BME280;57876;47.792;12.960;2024-03-25T07:15:26;96089.00;;;18.67;43.72
70434;BME280;57876;47.792;12.960;2024-03-25T07:17:51;96091.38;;;18.69;43.36
70434;BME280;57876;47.792;12.960;2024-03-25T07:20:15;96097.22;;;18.67;43.45
70434;BME280;57876;47.792;12.960;2024-03-25T07:22:40;96090.94;;;18.67;43.36
70434;BME280;57876;47.792;12.960;2024-03-25T07:25:04;96088.56;;;18.65;43.45
70434;BME280;57876;47.792;12.960;2024-03-25T07:27:29;96085.81;;;18.65;43.31
70434;BME280;57876;47.792;12.960;2024-03-25T07:29:53;96086.97;;;18.64;43.55
70434;BME280;57876;47.792;12.960;2024-03-25T07:32:17;96083.00;;;18.62;43.55
70434;BME280;57876;47.792;12.960;2024-03-25T07:34:42;96087.25;;;18.59;43.58
70434;BME280;57876;47.792;12.960;2024-03-25T07:37:06;96088.81;;;18.60;43.48
70434;BME280;57876;47.792;12.960;2024-03-25T07:39:30;96092.72;;;18.59;43.27
70434;BME280;57876;47.792;12.960;2024-03-25T07:41:55;96084.84;;;18.58;43.58
70434;BME280;57876;47.792;12.960;2024-03-25T07:44:19;96095.00;;;18.57;43.32
70434;BME280;57876;47.792;12.960;2024-03-25T07:46:44;96102.06;;;18.58;43.55
70434;BME280;57876;47.792;12.960;2024-03-25T07:49:08;96099.31;;;18.58;43.48
70434;BME280;57876;47.792;12.960;2024-03-25T07:51:32;96092.28;;;18.57;43.57
70434;BME280;57876;47.792;12.960;2024-03-25T07:53:59;96093.06;;;18.58;43.34
70434;BME280;57876;47.792;12.960;2024-03-25T07:56:24;96095.00;;;18.57;43.24
70434;BME280;57876;47.792;12.960;2024-03-25T07:58:48;96091.91;;;18.59;43.51
70434;BME280;57876;47.792;12.960;2024-03-25T08:01:12;96094.31;;;18.60;43.15
70434;BME280;57876;47.792;12.960;2024-03-25T08:03:37;96088.81;;;18.60;43.53
70434;BME280;57876;47.792;12.960;2024-03-25T08:06:01;96090.84;;;18.63;43.42
70434;BME280;57876;47.792;12.960;2024-03-25T08:08:26;96083.06;;;18.65;43.46
70434;BME280;57876;47.792;12.960;2024-03-25T08:10:51;96082.75;;;18.67;43.27
70434;BME280;57876;47.792;12.960;2024-03-25T08:13:16;96084.31;;;18.68;43.55
70434;BME280;57876;47.792;12.960;2024-03-25T08:15:41;96085.09;;;18.68;43.38
70434;BME280;57876;47.792;12.960;2024-03-25T08:18:05;96078.84;;;18.68;43.38
70434;BME280;57876;47.792;12.960;2024-03-25T08:20:30;96074.16;;;18.68;43.12
70434;BME280;57876;47.792;12.960;2024-03-25T08:22:54;96075.72;;;18.69;43.44
70434;BME280;57876;47.792;12.960;2024-03-25T08:25:19;96068.66;;;18.68;43.44
70434;BME280;57876;47.792;12.960;2024-03-25T08:27:43;96074.16;;;18.68;43.31
70434;BME280;57876;47.792;12.960;2024-03-25T08:30:08;96068.66;;;18.68;43.42
70434;BME280;57876;47.792;12.960;2024-03-25T08:32:33;96063.91;;;18.65;43.41
70434;BME280;57876;47.792;12.960;2024-03-25T08:34:57;96066.66;;;18.65;43.38
70434;BME280;57876;47.792;12.960;2024-03-25T08:37:21;96063.91;;;18.65;43.35
70434;BME280;57876;47.792;12.960;2024-03-25T08:39:46;96063.84;;;18.62;43.40
70434;BME280;57876;47.792;12.960;2024-03-25T08:42:11;96064.63;;;18.62;43.48
70434;BME280;57876;47.792;12.960;2024-03-25T08:44:35;96068.50;;;18.61;43.38
70434;BME280;57876;47.792;12.960;2024-03-25T08:46:59;96062.59;;;18.59;43.42
70434;BME280;57876;47.792;12.960;2024-03-25T08:49:24;96070.81;;;18.59;43.64
70434;BME280;57876;47.792;12.960;2024-03-25T08:51:48;96067.25;;;18.59;43.40
70434;BME280;57876;47.792;12.960;2024-03-25T08:54:12;96061.34;;;18.57;43.58
70434;BME280;57876;47.792;12.960;2024-03-25T08:56:37;96061.69;;;18.55;43.43
70434;BME280;57876;47.792;12.960;2024-03-25T08:59:01;96063.66;;;18.55;43.52
70434;BME280;57876;47.792;12.960;2024-03-25T09:01:25;96055.00;;;18.53;43.49
70434;BME280;57876;47.792;12.960;2024-03-25T09:03:50;96063.19;;;18.53;43.39
70434;BME280;57876;47.792;12.960;2024-03-25T09:06:15;96064.00;;;18.53;43.58
70434;BME280;57876;47.792;12.960;2024-03-25T09:08:40;96054.19;;;18.52;43.31
70434;BME280;57876;47.792;12.960;2024-03-25T09:11:23;96058.50;;;18.53;43.44
70434;BME280;57876;47.792;12.960;2024-03-25T09:13:49;96062.06;;;18.54;43.50
70434;BME280;57876;47.792;12.960;2024-03-25T09:16:13;96060.91;;;18.55;43.46
70434;BME280;57876;47.792;12.960;2024-03-25T09:18:39;96059.75;;;18.56;43.20
70434;BME280;57876;47.792;12.960;2024-03-25T09:21:03;96056.66;;;18.57;43.47
70434;BME280;57876;47.792;12.960;2024-03-25T09:23:29;96062.16;;;18.57;43.38
70434;BME280;57876;47.792;12.960;2024-03-25T09:25:53;96052.78;;;18.58;43.33
70434;BME280;57876;47.792;12.960;2024-03-25T09:28:18;96050.81;;;18.59;43.37
70434;BME280;57876;47.792;12.960;2024-03-25T09:30:42;96057.53;;;18.61;43.24
70434;BME280;57876;47.792;12.960;2024-03-25T09:33:06;96046.94;;;18.60;43.33
70434;BME280;57876;47.792;12.960;2024-03-25T09:35:31;96052.06;;;18.61;43.47
70434;BME280;57876;47.792;12.960;2024-03-25T09:37:55;96043.41;;;18.59;43.34
70434;BME280;57876;47.792;12.960;2024-03-25T09:40:20;96034.03;;;18.60;43.41
70434;BME280;57876;47.792;12.960;2024-03-25T09:42:49;96033.59;;;18.58;43.55
70434;BME280;57876;47.792;12.960;2024-03-25T09:45:17;96037.13;;;18.59;43.53
70434;BME280;57876;47.792;12.960;2024-03-25T09:47:45;96030.41;;;18.56;43.43
70434;BME280;57876;47.792;12.960;2024-03-25T09:50:10;96032.03;;;18.57;43.28
70434;BME280;57876;47.792;12.960;2024-03-25T09:52:36;96036.72;;;18.57;43.51
70434;BME280;57876;47.792;12.960;2024-03-25T09:55:01;96032.38;;;18.56;43.35
70434;BME280;57876;47.792;12.960;2024-03-25T09:57:25;96026.09;;;18.55;43.46
70434;BME280;57876;47.792;12.960;2024-03-25T09:59:50;96028.38;;;18.53;43.32
70434;BME280;57876;47.792;12.960;2024-03-25T10:02:15;96036.59;;;18.53;43.34
70434;BME280;57876;47.792;12.960;2024-03-25T10:04:45;96018.59;;;18.52;43.25
70434;BME280;57876;47.792;12.960;2024-03-25T10:07:10;96020.19;;;18.53;43.36
70434;BME280;57876;47.792;12.960;2024-03-25T10:09:35;96015.06;;;18.52;43.37
70434;BME280;57876;47.792;12.960;2024-03-25T10:12:00;96019.38;;;18.53;43.50
70434;BME280;57876;47.792;12.960;2024-03-25T10:14:24;96017.44;;;18.53;43.41
70434;BME280;57876;47.792;12.960;2024-03-25T10:16:48;96011.16;;;18.53;43.50
70434;BME280;57876;47.792;12.960;2024-03-25T10:19:16;96016.31;;;18.54;43.45
70434;BME280;57876;47.792;12.960;2024-03-25T10:21:40;96004.56;;;18.54;43.52
70434;BME280;57876;47.792;12.960;2024-03-25T10:24:05;96006.47;;;18.53;43.31
70434;BME280;57876;47.792;12.960;2024-03-25T10:26:31;96011.63;;;18.55;42.95
70434;BME280;57876;47.792;12.960;2024-03-25T10:29:02;96002.63;;;18.54;43.76
70434;BME280;57876;47.792;12.960;2024-03-25T10:31:30;96006.94;;;18.55;43.45
70434;BME280;57876;47.792;12.960;2024-03-25T10:33:55;95999.88;;;18.54;43.42
70434;BME280;57876;47.792;12.960;2024-03-25T10:36:21;95999.16;;;18.57;43.29
70434;BME280;57876;47.792;12.960;2024-03-25T10:38:49;95982.72;;;18.57;43.40
70434;BME280;57876;47.792;12.960;2024-03-25T10:41:17;95983.84;;;18.56;43.63
70434;BME280;57876;47.792;12.960;2024-03-25T10:43:46;95976.47;;;18.57;43.45
70434;BME280;57876;47.792;12.960;2024-03-25T10:46:14;95974.06;;;18.55;43.50
70434;BME280;57876;47.792;12.960;2024-03-25T10:48:41;95965.84;;;18.55;43.50
70434;BME280;57876;47.792;12.960;2024-03-25T10:51:08;95961.53;;;18.54;43.44
70434;BME280;57876;47.792;12.960;2024-03-25T10:53:35;95963.13;;;18.55;43.45
70434;BME280;57876;47.792;12.960;2024-03-25T10:56:01;95961.53;;;18.54;43.50
70434;BME280;57876;47.792;12.960;2024-03-25T10:58:26;95959.94;;;18.53;43.32
70434;BME280;57876;47.792;12.960;2024-03-25T11:00:52;95950.59;;;18.54;43.37
70434;BME280;57876;47.792;12.960;2024-03-25T11:03:20;95943.44;;;18.49;43.17
70434;BME280;57876;47.792;12.960;2024-03-25T11:05:45;95938.75;;;18.50;43.40
70434;BME280;57876;47.792;12.960;2024-03-25T11:08:14;95935.22;;;18.49;43.42
70434;BME280;57876;47.792;12.960;2024-03-25T11:10:46;95940.69;;;18.49;43.43
70434;BME280;57876;47.792;12.960;2024-03-25T11:13:11;95931.25;;;18.47;43.48
70434;BME280;57876;47.792;12.960;2024-03-25T11:15:37;95932.03;;;18.47;43.65
70434;BME280;57876;47.792;12.960;2024-03-25T11:18:02;95932.03;;;18.47;43.56
70434;BME280;57876;47.792;12.960;2024-03-25T11:20:26;95922.25;;;18.46;43.37
70434;BME280;57876;47.792;12.960;2024-03-25T11:22:52;95914.81;;;18.47;43.41
70434;BME280;57876;47.792;12.960;2024-03-25T11:25:17;95911.19;;;18.43;43.44
70434;BME280;57876;47.792;12.960;2024-03-25T11:27:45;95913.66;;;18.48;43.33
70434;BME280;57876;47.792;12.960;2024-03-25T11:30:11;95907.03;;;18.49;43.33
70434;BME280;57876;47.792;12.960;2024-03-25T11:35:12;95904.75;;;18.51;43.41
70434;BME280;57876;47.792;12.960;2024-03-25T11:37:41;95906.31;;;18.52;43.39
70434;BME280;57876;47.792;12.960;2024-03-25T11:40:07;95895.38;;;18.52;43.44
70434;BME280;57876;47.792;12.960;2024-03-25T11:42:33;95893.41;;;18.53;43.36
70434;BME280;57876;47.792;12.960;2024-03-25T11:44:57;95883.25;;;18.53;43.49
70434;BME280;57876;47.792;12.960;2024-03-25T11:47:22;95880.50;;;18.53;43.39
70434;BME280;57876;47.792;12.960;2024-03-25T11:49:47;95883.63;;;18.52;43.38
70434;BME280;57876;47.792;12.960;2024-03-25T11:52:11;95880.88;;;18.52;43.24
70434;BME280;57876;47.792;12.960;2024-03-25T11:54:35;95877.38;;;18.51;43.40
70434;BME280;57876;47.792;12.960;2024-03-25T11:57:00;95860.06;;;18.47;43.51
70434;BME280;57876;47.792;12.960;2024-03-25T11:59:25;95858.53;;;18.49;43.38
70434;BME280;57876;47.792;12.960;2024-03-25T12:01:50;95864.81;;;18.50;43.44
70434;BME280;57876;47.792;12.960;2024-03-25T12:04:18;95856.97;;;18.48;43.35
70434;BME280;57876;47.792;12.960;2024-03-25T12:06:43;95857.75;;;18.49;43.04
70434;BME280;57876;47.792;12.960;2024-03-25T12:09:07;95855.38;;;18.47;43.31
70434;BME280;57876;47.792;12.960;2024-03-25T12:11:50;95843.63;;;18.47;43.88
70434;BME280;57876;47.792;12.960;2024-03-25T12:14:15;95848.31;;;18.46;43.45
70434;BME280;57876;47.792;12.960;2024-03-25T12:16:40;95837.72;;;18.45;43.45
70434;BME280;57876;47.792;12.960;2024-03-25T12:19:05;95836.91;;;18.44;43.35
70434;BME280;57876;47.792;12.960;2024-03-25T12:21:31;95831.78;;;18.43;43.26
70434;BME280;57876;47.792;12.960;2024-03-25T12:23:55;95828.66;;;18.41;43.45
70434;BME280;57876;47.792;12.960;2024-03-25T12:26:19;95823.16;;;18.41;43.38
70434;BME280;57876;47.792;12.960;2024-03-25T12:28:44;95813.72;;;18.38;43.69
70434;BME280;57876;47.792;12.960;2024-03-25T12:31:09;95808.25;;;18.38;43.47
70434;BME280;57876;47.792;12.960;2024-03-25T12:33:45;95804.72;;;18.38;43.40
70434;BME280;57876;47.792;12.960;2024-03-25T12:36:13;95811.78;;;18.39;43.40
70434;BME280;57876;47.792;12.960;2024-03-25T12:38:38;95809.81;;;18.39;43.39
70434;BME280;57876;47.792;12.960;2024-03-25T12:41:09;95801.16;;;18.37;43.38
70434;BME280;57876;47.792;12.960;2024-03-25T12:43:35;95795.78;;;18.41;43.42